メインページ
METAR-TAF:

METAR-TAF

空港 :

大島空港

新居大島, 日本

緯度: 34-47N, 経度: 139-22E, 海抜: 38m

現時点の気象観測

当レポートは44分前の08:00(UTC)に作成
北/北東の風 10kt
気温 24°C
湿度 89%
気圧 1012 hPa
視程10km以上
高度800ftの雲はほとんどない
高度1100ftの千切れ雲あり
弱いにわか雨

METAR: RJTO 200800Z 03010KT 9999 -SHRA FEW008 BKN011 24/22 Q1012

時間: 17:44 (08:44 UTC)


TAF: 見つかりません

4,000以上の空港の気象観測と天気予報(METAR報とTAF報)

利用可能な観測所は地図上に黄色い丸と赤い丸で示す。

丸の上にカーソルを重ねると観測所名を参照できる。

次にクリックすると気象観測と天気予報を参照できる。

マップの切り替え:黒色「×」印の緑ボタンをクリックして拡大、「-」印の緑ボタンをクリックして縮小、緑色の三角印をクリックして隣りの地図に切り替え


METAR-TAF: